createdAt,value
2022-12-25T00:02:26.236Z,22.57
2022-12-25T00:07:30.136Z,22.56
2022-12-25T00:12:34.440Z,22.54
2022-12-25T00:17:37.207Z,22.53
2022-12-25T00:22:39.988Z,22.50
2022-12-25T00:27:44.229Z,22.49
2022-12-25T00:32:47.034Z,22.49
2022-12-25T00:37:49.993Z,22.49
2022-12-25T00:42:54.403Z,22.48
2022-12-25T00:47:57.419Z,22.47
2022-12-25T00:53:00.357Z,22.46
2022-12-25T00:58:04.493Z,22.45
2022-12-25T01:03:07.262Z,22.44
2022-12-25T01:08:10.042Z,22.33
2022-12-25T01:13:14.179Z,22.42
2022-12-25T01:18:17.118Z,22.41
2022-12-25T01:23:19.971Z,22.43
2022-12-25T01:28:24.082Z,22.42
2022-12-25T01:33:26.918Z,22.44
2022-12-25T01:38:29.679Z,22.44
2022-12-25T01:43:34.107Z,22.39
2022-12-25T01:48:37.994Z,22.30
2022-12-25T01:53:40.827Z,22.23
2022-12-25T01:58:45.037Z,22.16
2022-12-25T02:03:47.772Z,22.10
2022-12-25T02:08:50.668Z,21.96
2022-12-25T02:13:54.814Z,21.96
2022-12-25T02:18:58.980Z,21.91
2022-12-25T02:24:33.448Z,21.85
2022-12-25T02:29:43.738Z,21.82
2022-12-25T02:34:49.021Z,21.77
2022-12-25T02:40:00.591Z,21.72
2022-12-25T02:45:22.702Z,21.65
2022-12-25T02:50:43.234Z,21.57
2022-12-25T02:56:03.440Z,21.49
2022-12-25T03:01:27.508Z,21.40
2022-12-25T03:06:46.648Z,21.32
2022-12-25T03:11:51.660Z,21.33
2022-12-25T03:16:56.875Z,21.20
2022-12-25T03:22:17.190Z,21.15
2022-12-25T03:27:19.935Z,21.04
2022-12-25T03:32:28.314Z,21.00
2022-12-25T03:37:52.514Z,20.93
2022-12-25T03:43:14.693Z,20.85
2022-12-25T03:48:36.338Z,20.85
2022-12-25T03:53:58.975Z,20.78
2022-12-25T03:59:23.593Z,20.75
2022-12-25T04:04:45.490Z,20.71
2022-12-25T04:10:05.651Z,20.66
2022-12-25T04:15:27.576Z,20.65
2022-12-25T04:20:49.445Z,20.63
2022-12-25T04:26:09.703Z,20.60
2022-12-25T04:31:30.027Z,20.56
2022-12-25T04:36:34.202Z,20.52
2022-12-25T04:41:37.019Z,20.49
2022-12-25T04:46:39.862Z,20.46
2022-12-25T04:51:44.115Z,20.42
2022-12-25T04:56:46.873Z,20.42
2022-12-25T05:01:49.755Z,20.36
2022-12-25T05:06:53.976Z,20.35
2022-12-25T05:11:56.711Z,20.32
2022-12-25T05:16:59.454Z,20.30
2022-12-25T05:22:03.609Z,20.26
2022-12-25T05:27:06.372Z,20.24
2022-12-25T05:32:09.143Z,20.20
2022-12-25T05:37:13.527Z,20.17
2022-12-25T05:42:16.488Z,20.16
2022-12-25T05:47:19.275Z,20.13
2022-12-25T05:52:23.493Z,20.11
2022-12-25T05:57:26.335Z,20.07
2022-12-25T06:02:29.356Z,20.05
2022-12-25T06:07:33.670Z,20.03
2022-12-25T06:12:36.506Z,20.02
2022-12-25T06:17:39.290Z,20.00
2022-12-25T06:22:43.503Z,19.96
2022-12-25T06:27:46.331Z,19.97
2022-12-25T06:32:49.082Z,19.94
2022-12-25T06:37:53.194Z,19.92
2022-12-25T06:42:56.213Z,19.89
2022-12-25T06:47:59.057Z,19.88
2022-12-25T06:53:03.215Z,19.87
2022-12-25T06:58:06.045Z,19.85
2022-12-25T07:03:08.876Z,19.84
2022-12-25T07:08:13.049Z,19.82
2022-12-25T07:13:15.985Z,19.81
2022-12-25T07:18:18.837Z,19.79
2022-12-25T07:23:23.088Z,19.79
2022-12-25T07:28:25.975Z,19.78
2022-12-25T07:33:28.773Z,19.78
2022-12-25T07:38:32.988Z,19.74
2022-12-25T07:43:35.721Z,19.74
2022-12-25T07:48:38.628Z,19.72
2022-12-25T07:53:43.043Z,19.73
2022-12-25T07:58:45.977Z,19.73
2022-12-25T08:03:52.241Z,19.21
2022-12-25T08:08:56.496Z,17.85
2022-12-25T08:13:59.241Z,17.69
2022-12-25T08:19:02.065Z,18.12
2022-12-25T08:24:06.839Z,18.38
2022-12-25T08:29:09.674Z,18.55
2022-12-25T08:34:12.639Z,18.61
2022-12-25T08:39:16.866Z,18.80
2022-12-25T08:44:19.846Z,18.91
2022-12-25T08:49:22.693Z,18.97
2022-12-25T08:54:27.098Z,18.99
2022-12-25T08:59:29.858Z,19.07
2022-12-25T09:04:32.684Z,19.10
2022-12-25T09:09:37.017Z,19.15
2022-12-25T09:14:39.844Z,19.19
2022-12-25T09:19:42.673Z,19.20
2022-12-25T09:24:46.927Z,19.23
2022-12-25T09:29:50.287Z,19.23
2022-12-25T09:34:53.051Z,19.23
2022-12-25T09:39:57.176Z,19.24
2022-12-25T09:45:01.824Z,19.25
2022-12-25T09:50:07.994Z,19.25
2022-12-25T09:55:19.783Z,19.26
2022-12-25T10:00:23.961Z,19.26
2022-12-25T10:05:35.729Z,19.26
2022-12-25T10:10:51.903Z,19.27
2022-12-25T10:15:59.142Z,19.24
2022-12-25T10:21:03.954Z,19.30
2022-12-25T10:26:15.446Z,19.33
2022-12-25T10:31:21.959Z,19.38
2022-12-25T10:36:25.595Z,19.40
2022-12-25T10:41:40.963Z,19.41
2022-12-25T10:46:43.957Z,19.44
2022-12-25T10:51:46.832Z,19.52
2022-12-25T10:56:58.845Z,19.64
2022-12-25T11:02:05.679Z,19.83
2022-12-25T11:07:09.678Z,19.95
2022-12-25T11:12:18.301Z,20.07
2022-12-25T11:17:23.066Z,20.14
2022-12-25T11:22:26.434Z,20.22
2022-12-25T11:27:33.593Z,20.26
2022-12-25T11:32:39.022Z,20.30
2022-12-25T11:37:43.669Z,20.32
2022-12-25T11:42:49.503Z,20.37
2022-12-25T11:47:53.115Z,20.44
2022-12-25T11:52:56.003Z,20.47
2022-12-25T11:58:02.435Z,20.49
2022-12-25T12:03:07.980Z,20.52
2022-12-25T12:08:11.010Z,20.60
2022-12-25T12:13:27.072Z,20.66
2022-12-25T12:18:31.220Z,20.69
2022-12-25T12:23:36.078Z,20.69
2022-12-25T12:28:44.235Z,20.67
2022-12-25T12:33:51.827Z,20.63
2022-12-25T12:38:54.910Z,20.59
2022-12-25T12:43:59.441Z,20.54
2022-12-25T12:49:09.659Z,20.48
2022-12-25T12:54:20.779Z,20.40
2022-12-25T12:59:25.144Z,20.36
2022-12-25T13:04:35.317Z,20.33
2022-12-25T13:09:46.568Z,20.30
2022-12-25T13:14:50.947Z,20.32
2022-12-25T13:19:56.375Z,20.34
2022-12-25T13:25:00.356Z,20.37
2022-12-25T13:30:14.838Z,20.38
2022-12-25T13:35:17.723Z,20.42
2022-12-25T13:40:22.740Z,20.45
2022-12-25T13:45:27.923Z,20.45
2022-12-25T13:50:31.646Z,20.45
2022-12-25T13:55:34.447Z,20.47
2022-12-25T14:00:39.554Z,20.49
2022-12-25T14:05:43.669Z,20.52
2022-12-25T14:10:48.212Z,20.49
2022-12-25T14:15:53.300Z,20.51
2022-12-25T14:20:59.048Z,20.50
2022-12-25T14:26:01.851Z,20.53
2022-12-25T14:31:06.402Z,20.54
2022-12-25T14:36:10.681Z,20.47
2022-12-25T14:41:25.896Z,20.49
2022-12-25T14:46:32.370Z,20.46
2022-12-25T14:51:36.332Z,20.44
2022-12-25T14:56:40.052Z,20.43
2022-12-25T15:01:44.701Z,20.38
2022-12-25T15:06:53.969Z,20.39
2022-12-25T15:11:57.167Z,20.37
2022-12-25T15:17:01.818Z,20.36
2022-12-25T15:22:04.836Z,20.37
2022-12-25T15:27:10.443Z,20.37
2022-12-25T15:32:17.497Z,20.38
2022-12-25T15:37:20.341Z,20.41
2022-12-25T15:42:24.023Z,20.40
2022-12-25T15:47:28.208Z,20.43
2022-12-25T15:52:31.146Z,20.44
2022-12-25T15:57:35.078Z,20.45
2022-12-25T16:02:39.429Z,20.48
2022-12-25T16:07:42.436Z,20.51
2022-12-25T16:12:45.391Z,20.51
2022-12-25T16:17:49.506Z,20.51
2022-12-25T16:22:52.263Z,20.52
2022-12-25T16:27:55.037Z,20.51
2022-12-25T16:32:59.244Z,20.51
2022-12-25T16:38:02.041Z,20.48
2022-12-25T16:43:04.819Z,20.47
2022-12-25T16:48:09.224Z,20.47
2022-12-25T16:53:12.484Z,20.45
2022-12-25T16:58:15.226Z,20.44
2022-12-25T17:03:19.541Z,20.41
2022-12-25T17:08:22.542Z,20.44
2022-12-25T17:13:25.321Z,20.45
2022-12-25T17:18:29.593Z,20.47
2022-12-25T17:23:32.577Z,20.43
2022-12-25T17:28:35.571Z,20.42
2022-12-25T17:33:40.176Z,20.40
2022-12-25T17:38:49.273Z,20.39
2022-12-25T17:43:52.058Z,20.36
2022-12-25T17:48:56.734Z,20.35
2022-12-25T17:54:00.709Z,20.33
2022-12-25T17:59:06.614Z,20.33
2022-12-25T18:04:11.053Z,20.31
2022-12-25T18:09:13.935Z,20.31
2022-12-25T18:14:17.011Z,20.31
2022-12-25T18:19:21.555Z,20.29
2022-12-25T18:24:24.384Z,20.31
2022-12-25T18:29:27.386Z,20.31
2022-12-25T18:34:31.785Z,20.27
2022-12-25T18:39:34.573Z,20.25
2022-12-25T18:44:37.523Z,20.23
2022-12-25T18:49:41.616Z,20.23
2022-12-25T18:54:44.581Z,20.22
2022-12-25T18:59:47.564Z,20.19
2022-12-25T19:04:52.628Z,20.20
2022-12-25T19:09:55.756Z,20.18
2022-12-25T19:14:59.030Z,20.15
2022-12-25T19:20:03.428Z,20.15
2022-12-25T19:25:07.378Z,20.14
2022-12-25T19:30:11.602Z,20.11
2022-12-25T19:35:15.878Z,20.13
2022-12-25T19:40:18.880Z,20.18
2022-12-25T19:45:21.817Z,20.29
2022-12-25T19:50:28.411Z,20.47
2022-12-25T19:55:32.840Z,20.53
2022-12-25T20:00:35.701Z,20.58
2022-12-25T20:05:39.862Z,20.65
2022-12-25T20:10:44.348Z,20.70
2022-12-25T20:15:47.128Z,20.75
2022-12-25T20:20:51.266Z,20.81
2022-12-25T20:25:54.085Z,20.80
2022-12-25T20:30:57.195Z,20.82
2022-12-25T20:36:01.821Z,20.82
2022-12-25T20:46:29.331Z,20.88
2022-12-25T20:51:33.671Z,20.78
2022-12-25T20:56:36.680Z,20.93
2022-12-25T21:01:39.852Z,20.91
2022-12-25T21:06:44.065Z,20.95
2022-12-25T21:11:47.148Z,20.97
2022-12-25T21:16:50.286Z,21.01
2022-12-25T21:21:54.810Z,21.02
2022-12-25T21:26:57.764Z,21.07
2022-12-25T21:32:17.950Z,21.07
2022-12-25T21:37:23.135Z,21.10
2022-12-25T21:42:25.905Z,21.13
2022-12-25T21:47:59.784Z,21.13
2022-12-25T21:52:52.964Z,21.17
2022-12-25T21:57:55.951Z,21.20
2022-12-25T22:02:58.924Z,21.19
2022-12-25T22:08:03.319Z,21.24
2022-12-25T22:13:23.518Z,21.26
2022-12-25T22:18:44.041Z,21.25
2022-12-25T22:23:48.280Z,21.32
2022-12-25T22:28:51.038Z,21.34
2022-12-25T22:33:53.852Z,21.38
2022-12-25T22:38:58.030Z,21.45
2022-12-25T22:44:17.883Z,21.46
2022-12-25T22:49:21.267Z,21.52
2022-12-25T22:54:25.501Z,21.56
2022-12-25T22:59:28.292Z,21.56
2022-12-25T23:04:31.165Z,21.60
2022-12-25T23:09:35.337Z,21.67
2022-12-25T23:14:41.599Z,21.72
2022-12-25T23:20:01.991Z,21.74
2022-12-25T23:25:28.773Z,21.79
2022-12-25T23:30:33.307Z,21.79
2022-12-25T23:35:36.206Z,21.80
2022-12-25T23:40:40.338Z,21.78
2022-12-25T23:45:43.115Z,21.77
2022-12-25T23:50:45.877Z,21.70
2022-12-25T23:55:55.277Z,21.66
